sensor_id;sensor_type;location;lat;lon;timestamp;P1;durP1;ratioP1;P2;durP2;ratioP2
24086;SDS011;22893;50.572;7.234;2022-08-19T05:09:07;6.55;;;4.55;;
24086;SDS011;22893;50.572;7.234;2022-08-19T05:11:35;7.37;;;4.30;;
24086;SDS011;22893;50.572;7.234;2022-08-19T05:14:05;6.92;;;4.10;;
24086;SDS011;22893;50.572;7.234;2022-08-19T05:16:34;6.55;;;4.85;;
24086;SDS011;22893;50.572;7.234;2022-08-19T05:19:02;7.12;;;4.85;;
24086;SDS011;22893;50.572;7.234;2022-08-19T05:21:47;7.37;;;4.55;;
24086;SDS011;22893;50.572;7.234;2022-08-19T05:24:33;5.72;;;3.75;;
24086;SDS011;22893;50.572;7.234;2022-08-19T05:27:01;7.60;;;4.45;;
24086;SDS011;22893;50.572;7.234;2022-08-19T05:29:31;7.92;;;5.20;;
24086;SDS011;22893;50.572;7.234;2022-08-19T05:32:00;9.80;;;4.83;;
24086;SDS011;22893;50.572;7.234;2022-08-19T05:34:31;5.85;;;4.35;;
24086;SDS011;22893;50.572;7.234;2022-08-19T05:36:59;6.78;;;4.33;;
24086;SDS011;22893;50.572;7.234;2022-08-19T05:39:29;6.78;;;4.37;;
24086;SDS011;22893;50.572;7.234;2022-08-19T05:42:00;7.17;;;4.40;;
24086;SDS011;22893;50.572;7.234;2022-08-19T05:44:32;6.65;;;4.50;;
24086;SDS011;22893;50.572;7.234;2022-08-19T05:47:02;5.95;;;4.17;;
24086;SDS011;22893;50.572;7.234;2022-08-19T05:49:32;7.65;;;4.72;;
24086;SDS011;22893;50.572;7.234;2022-08-19T05:52:08;9.63;;;5.17;;
24086;SDS011;22893;50.572;7.234;2022-08-19T05:54:34;6.60;;;4.65;;
24086;SDS011;22893;50.572;7.234;2022-08-19T05:57:03;6.20;;;4.47;;
24086;SDS011;22893;50.572;7.234;2022-08-19T05:59:31;7.55;;;4.90;;
24086;SDS011;22893;50.572;7.234;2022-08-19T06:02:01;9.25;;;5.12;;
24086;SDS011;22893;50.572;7.234;2022-08-19T06:04:29;8.80;;;5.30;;
24086;SDS011;22893;50.572;7.234;2022-08-19T06:06:57;6.97;;;5.00;;
24086;SDS011;22893;50.572;7.234;2022-08-19T06:09:25;8.10;;;4.85;;
24086;SDS011;22893;50.572;7.234;2022-08-19T06:11:54;10.25;;;5.65;;
24086;SDS011;22893;50.572;7.234;2022-08-19T06:14:28;9.88;;;4.97;;
24086;SDS011;22893;50.572;7.234;2022-08-19T06:16:56;7.37;;;4.75;;
24086;SDS011;22893;50.572;7.234;2022-08-19T06:19:26;7.67;;;5.28;;
24086;SDS011;22893;50.572;7.234;2022-08-19T06:21:56;9.40;;;5.08;;
24086;SDS011;22893;50.572;7.234;2022-08-19T06:24:25;7.10;;;4.85;;
24086;SDS011;22893;50.572;7.234;2022-08-19T06:26:54;9.93;;;6.03;;
24086;SDS011;22893;50.572;7.234;2022-08-19T06:29:23;7.72;;;5.72;;
24086;SDS011;22893;50.572;7.234;2022-08-19T06:31:53;16.40;;;6.03;;
24086;SDS011;22893;50.572;7.234;2022-08-19T06:34:23;7.75;;;5.28;;
24086;SDS011;22893;50.572;7.234;2022-08-19T06:36:53;12.93;;;5.75;;
24086;SDS011;22893;50.572;7.234;2022-08-19T06:39:24;7.12;;;5.37;;
24086;SDS011;22893;50.572;7.234;2022-08-19T06:41:59;10.10;;;5.55;;
24086;SDS011;22893;50.572;7.234;2022-08-19T06:44:24;8.48;;;5.10;;
24086;SDS011;22893;50.572;7.234;2022-08-19T06:46:54;10.23;;;5.70;;
24086;SDS011;22893;50.572;7.234;2022-08-19T06:49:22;7.55;;;5.75;;
24086;SDS011;22893;50.572;7.234;2022-08-19T06:51:52;8.95;;;5.67;;
24086;SDS011;22893;50.572;7.234;2022-08-19T06:54:21;8.53;;;5.22;;
24086;SDS011;22893;50.572;7.234;2022-08-19T06:56:50;9.75;;;5.75;;
24086;SDS011;22893;50.572;7.234;2022-08-19T06:59:19;7.90;;;6.05;;
24086;SDS011;22893;50.572;7.234;2022-08-19T07:01:50;13.98;;;6.17;;
24086;SDS011;22893;50.572;7.234;2022-08-19T07:04:19;15.30;;;6.00;;
24086;SDS011;22893;50.572;7.234;2022-08-19T07:06:59;10.63;;;5.70;;
24086;SDS011;22893;50.572;7.234;2022-08-19T07:09:34;11.73;;;5.87;;
24086;SDS011;22893;50.572;7.234;2022-08-19T07:12:05;10.05;;;5.70;;
24086;SDS011;22893;50.572;7.234;2022-08-19T07:14:35;8.78;;;5.97;;
24086;SDS011;22893;50.572;7.234;2022-08-19T07:17:05;7.80;;;5.70;;
24086;SDS011;22893;50.572;7.234;2022-08-19T07:19:34;11.85;;;6.22;;
24086;SDS011;22893;50.572;7.234;2022-08-19T07:22:03;14.28;;;6.35;;
24086;SDS011;22893;50.572;7.234;2022-08-19T07:24:33;10.13;;;5.87;;
24086;SDS011;22893;50.572;7.234;2022-08-19T07:27:02;9.60;;;6.10;;
24086;SDS011;22893;50.572;7.234;2022-08-19T07:29:32;19.75;;;9.58;;
24086;SDS011;22893;50.572;7.234;2022-08-19T07:32:01;12.85;;;7.25;;
24086;SDS011;22893;50.572;7.234;2022-08-19T07:34:30;14.05;;;8.23;;
24086;SDS011;22893;50.572;7.234;2022-08-19T07:37:00;13.88;;;6.90;;
24086;SDS011;22893;50.572;7.234;2022-08-19T07:39:29;10.50;;;6.75;;
24086;SDS011;22893;50.572;7.234;2022-08-19T07:41:58;12.40;;;7.03;;
24086;SDS011;22893;50.572;7.234;2022-08-19T07:44:28;14.10;;;6.92;;
24086;SDS011;22893;50.572;7.234;2022-08-19T07:46:57;10.32;;;6.60;;
24086;SDS011;22893;50.572;7.234;2022-08-19T07:49:25;14.55;;;6.28;;
24086;SDS011;22893;50.572;7.234;2022-08-19T07:51:57;10.78;;;6.03;;
24086;SDS011;22893;50.572;7.234;2022-08-19T07:54:27;14.85;;;6.50;;
24086;SDS011;22893;50.572;7.234;2022-08-19T07:56:59;13.43;;;6.30;;
24086;SDS011;22893;50.572;7.234;2022-08-19T07:59:27;13.08;;;7.08;;
24086;SDS011;22893;50.572;7.234;2022-08-19T08:01:56;17.37;;;7.12;;
24086;SDS011;22893;50.572;7.234;2022-08-19T08:04:28;25.12;;;7.78;;
24086;SDS011;22893;50.572;7.234;2022-08-19T08:07:14;12.20;;;6.55;;
24086;SDS011;22893;50.572;7.234;2022-08-19T08:10:00;22.17;;;6.15;;
24086;SDS011;22893;50.572;7.234;2022-08-19T08:12:34;15.00;;;6.17;;
24086;SDS011;22893;50.572;7.234;2022-08-19T08:15:00;9.48;;;5.60;;
24086;SDS011;22893;50.572;7.234;2022-08-19T08:17:30;10.08;;;6.30;;
24086;SDS011;22893;50.572;7.234;2022-08-19T08:19:59;10.18;;;6.37;;
24086;SDS011;22893;50.572;7.234;2022-08-19T08:22:28;11.78;;;5.75;;
24086;SDS011;22893;50.572;7.234;2022-08-19T08:25:15;10.25;;;5.40;;
24086;SDS011;22893;50.572;7.234;2022-08-19T08:27:45;10.58;;;5.53;;
24086;SDS011;22893;50.572;7.234;2022-08-19T08:30:18;13.62;;;6.28;;
24086;SDS011;22893;50.572;7.234;2022-08-19T08:32:47;9.20;;;5.53;;
24086;SDS011;22893;50.572;7.234;2022-08-19T08:35:18;9.23;;;5.30;;
24086;SDS011;22893;50.572;7.234;2022-08-19T08:37:48;11.73;;;5.70;;
24086;SDS011;22893;50.572;7.234;2022-08-19T08:43:08;9.45;;;5.08;;
24086;SDS011;22893;50.572;7.234;2022-08-19T08:45:41;9.63;;;5.10;;
24086;SDS011;22893;50.572;7.234;2022-08-19T08:48:15;8.80;;;4.65;;
24086;SDS011;22893;50.572;7.234;2022-08-19T08:50:41;7.55;;;5.20;;
24086;SDS011;22893;50.572;7.234;2022-08-19T08:53:11;9.98;;;6.15;;
24086;SDS011;22893;50.572;7.234;2022-08-19T08:55:41;12.90;;;6.67;;
24086;SDS011;22893;50.572;7.234;2022-08-19T08:58:17;10.40;;;6.20;;
24086;SDS011;22893;50.572;7.234;2022-08-19T09:00:47;8.25;;;5.00;;
24086;SDS011;22893;50.572;7.234;2022-08-19T09:03:19;10.35;;;5.35;;
24086;SDS011;22893;50.572;7.234;2022-08-19T09:06:04;12.05;;;5.22;;
24086;SDS011;22893;50.572;7.234;2022-08-19T09:08:56;12.00;;;6.00;;
24086;SDS011;22893;50.572;7.234;2022-08-19T09:17:09;9.95;;;5.37;;
24086;SDS011;22893;50.572;7.234;2022-08-19T09:19:49;9.35;;;5.15;;
24086;SDS011;22893;50.572;7.234;2022-08-19T09:22:18;13.00;;;5.40;;
24086;SDS011;22893;50.572;7.234;2022-08-19T09:24:50;14.18;;;5.45;;
24086;SDS011;22893;50.572;7.234;2022-08-19T09:27:19;12.58;;;6.00;;
24086;SDS011;22893;50.572;7.234;2022-08-19T09:29:49;15.58;;;5.97;;
24086;SDS011;22893;50.572;7.234;2022-08-19T09:32:20;10.08;;;5.70;;
24086;SDS011;22893;50.572;7.234;2022-08-19T09:34:49;12.13;;;6.33;;
24086;SDS011;22893;50.572;7.234;2022-08-19T09:37:18;10.20;;;5.65;;
24086;SDS011;22893;50.572;7.234;2022-08-19T09:39:47;7.45;;;5.65;;
24086;SDS011;22893;50.572;7.234;2022-08-19T09:42:14;12.88;;;5.47;;
24086;SDS011;22893;50.572;7.234;2022-08-19T09:44:42;12.03;;;6.25;;
24086;SDS011;22893;50.572;7.234;2022-08-19T09:47:11;9.08;;;5.53;;
24086;SDS011;22893;50.572;7.234;2022-08-19T09:49:41;15.75;;;6.12;;
24086;SDS011;22893;50.572;7.234;2022-08-19T09:52:09;10.95;;;5.55;;
24086;SDS011;22893;50.572;7.234;2022-08-19T09:54:38;9.00;;;5.58;;
24086;SDS011;22893;50.572;7.234;2022-08-19T09:57:06;11.57;;;5.97;;
24086;SDS011;22893;50.572;7.234;2022-08-19T09:59:33;13.00;;;6.10;;
24086;SDS011;22893;50.572;7.234;2022-08-19T10:02:01;13.48;;;5.37;;
24086;SDS011;22893;50.572;7.234;2022-08-19T10:04:29;7.87;;;5.20;;
24086;SDS011;22893;50.572;7.234;2022-08-19T10:07:15;10.38;;;6.25;;
24086;SDS011;22893;50.572;7.234;2022-08-19T10:09:42;13.35;;;5.87;;
24086;SDS011;22893;50.572;7.234;2022-08-19T10:12:10;13.45;;;6.37;;
24086;SDS011;22893;50.572;7.234;2022-08-19T10:14:37;11.33;;;6.58;;
24086;SDS011;22893;50.572;7.234;2022-08-19T10:17:05;16.27;;;5.75;;
24086;SDS011;22893;50.572;7.234;2022-08-19T10:19:33;9.43;;;6.22;;
24086;SDS011;22893;50.572;7.234;2022-08-19T10:22:05;9.50;;;5.80;;
24086;SDS011;22893;50.572;7.234;2022-08-19T10:24:33;12.47;;;6.70;;
24086;SDS011;22893;50.572;7.234;2022-08-19T10:27:02;11.18;;;6.75;;
24086;SDS011;22893;50.572;7.234;2022-08-19T10:29:31;14.07;;;7.20;;
24086;SDS011;22893;50.572;7.234;2022-08-19T10:32:03;13.93;;;7.03;;
24086;SDS011;22893;50.572;7.234;2022-08-19T10:34:34;12.20;;;7.22;;
24086;SDS011;22893;50.572;7.234;2022-08-19T10:37:04;13.88;;;6.55;;
24086;SDS011;22893;50.572;7.234;2022-08-19T10:39:33;17.45;;;8.10;;
24086;SDS011;22893;50.572;7.234;2022-08-19T10:42:05;13.78;;;8.33;;
24086;SDS011;22893;50.572;7.234;2022-08-19T10:44:33;12.82;;;6.92;;
24086;SDS011;22893;50.572;7.234;2022-08-19T10:47:01;14.98;;;8.63;;
24086;SDS011;22893;50.572;7.234;2022-08-19T10:49:30;12.05;;;7.00;;
24086;SDS011;22893;50.572;7.234;2022-08-19T10:51:58;14.00;;;7.28;;
24086;SDS011;22893;50.572;7.234;2022-08-19T10:54:43;16.57;;;8.75;;
24086;SDS011;22893;50.572;7.234;2022-08-19T10:57:32;14.80;;;8.60;;
24086;SDS011;22893;50.572;7.234;2022-08-19T10:59:59;15.75;;;8.90;;
24086;SDS011;22893;50.572;7.234;2022-08-19T11:02:27;10.78;;;7.08;;
24086;SDS011;22893;50.572;7.234;2022-08-19T11:04:54;13.50;;;6.55;;
24086;SDS011;22893;50.572;7.234;2022-08-19T11:07:22;14.20;;;6.70;;
24086;SDS011;22893;50.572;7.234;2022-08-19T11:09:50;12.75;;;7.50;;
24086;SDS011;22893;50.572;7.234;2022-08-19T11:12:18;12.35;;;6.95;;
24086;SDS011;22893;50.572;7.234;2022-08-19T11:14:46;16.17;;;7.87;;
24086;SDS011;22893;50.572;7.234;2022-08-19T11:17:15;12.78;;;7.55;;
24086;SDS011;22893;50.572;7.234;2022-08-19T11:19:43;11.85;;;7.62;;
24086;SDS011;22893;50.572;7.234;2022-08-19T11:22:10;14.30;;;7.97;;
24086;SDS011;22893;50.572;7.234;2022-08-19T11:24:38;11.90;;;7.87;;
24086;SDS011;22893;50.572;7.234;2022-08-19T11:27:07;16.23;;;8.00;;
24086;SDS011;22893;50.572;7.234;2022-08-19T11:29:38;10.90;;;7.00;;
24086;SDS011;22893;50.572;7.234;2022-08-19T11:32:06;9.60;;;7.28;;
24086;SDS011;22893;50.572;7.234;2022-08-19T11:34:35;10.53;;;6.85;;
24086;SDS011;22893;50.572;7.234;2022-08-19T11:37:05;10.95;;;6.75;;
24086;SDS011;22893;50.572;7.234;2022-08-19T11:39:34;13.70;;;7.47;;
24086;SDS011;22893;50.572;7.234;2022-08-19T11:42:04;10.58;;;7.03;;
24086;SDS011;22893;50.572;7.234;2022-08-19T11:44:34;13.38;;;7.00;;
24086;SDS011;22893;50.572;7.234;2022-08-19T11:47:01;9.68;;;6.90;;
24086;SDS011;22893;50.572;7.234;2022-08-19T11:49:29;10.35;;;6.17;;
24086;SDS011;22893;50.572;7.234;2022-08-19T11:51:57;14.15;;;7.05;;
24086;SDS011;22893;50.572;7.234;2022-08-19T11:54:24;11.63;;;6.97;;
24086;SDS011;22893;50.572;7.234;2022-08-19T11:56:52;9.60;;;6.30;;
24086;SDS011;22893;50.572;7.234;2022-08-19T11:59:19;9.85;;;6.72;;
24086;SDS011;22893;50.572;7.234;2022-08-19T12:01:47;13.05;;;6.85;;
24086;SDS011;22893;50.572;7.234;2022-08-19T12:04:14;10.25;;;6.40;;
24086;SDS011;22893;50.572;7.234;2022-08-19T12:06:42;9.75;;;6.72;;
24086;SDS011;22893;50.572;7.234;2022-08-19T12:09:10;9.43;;;6.22;;
24086;SDS011;22893;50.572;7.234;2022-08-19T12:11:38;11.95;;;6.75;;
24086;SDS011;22893;50.572;7.234;2022-08-19T12:14:06;10.35;;;6.00;;
24086;SDS011;22893;50.572;7.234;2022-08-19T12:16:39;8.95;;;6.20;;
24086;SDS011;22893;50.572;7.234;2022-08-19T12:19:07;11.12;;;5.97;;
24086;SDS011;22893;50.572;7.234;2022-08-19T12:21:35;8.80;;;5.53;;
24086;SDS011;22893;50.572;7.234;2022-08-19T12:24:03;10.68;;;5.37;;
24086;SDS011;22893;50.572;7.234;2022-08-19T12:26:32;8.00;;;6.03;;
24086;SDS011;22893;50.572;7.234;2022-08-19T12:29:00;7.80;;;5.67;;
24086;SDS011;22893;50.572;7.234;2022-08-19T12:31:28;6.85;;;4.80;;
24086;SDS011;22893;50.572;7.234;2022-08-19T12:33:56;8.20;;;5.45;;
24086;SDS011;22893;50.572;7.234;2022-08-19T12:36:24;7.35;;;5.50;;
24086;SDS011;22893;50.572;7.234;2022-08-19T12:38:52;8.65;;;4.83;;
24086;SDS011;22893;50.572;7.234;2022-08-19T12:41:20;8.98;;;4.90;;
24086;SDS011;22893;50.572;7.234;2022-08-19T12:43:48;8.00;;;5.53;;
24086;SDS011;22893;50.572;7.234;2022-08-19T12:46:17;9.03;;;5.05;;
24086;SDS011;22893;50.572;7.234;2022-08-19T12:48:45;6.58;;;4.58;;
24086;SDS011;22893;50.572;7.234;2022-08-19T12:51:14;8.58;;;5.40;;
24086;SDS011;22893;50.572;7.234;2022-08-19T12:53:45;8.23;;;5.10;;
24086;SDS011;22893;50.572;7.234;2022-08-19T12:56:13;8.03;;;4.92;;
24086;SDS011;22893;50.572;7.234;2022-08-19T12:58:41;7.70;;;4.85;;
24086;SDS011;22893;50.572;7.234;2022-08-19T13:01:11;9.95;;;5.30;;
24086;SDS011;22893;50.572;7.234;2022-08-19T13:03:40;7.83;;;5.45;;
24086;SDS011;22893;50.572;7.234;2022-08-19T13:06:08;8.93;;;5.70;;
24086;SDS011;22893;50.572;7.234;2022-08-19T13:08:36;7.55;;;5.40;;
24086;SDS011;22893;50.572;7.234;2022-08-19T13:11:11;8.35;;;5.92;;
24086;SDS011;22893;50.572;7.234;2022-08-19T13:13:45;7.92;;;6.03;;
24086;SDS011;22893;50.572;7.234;2022-08-19T13:16:14;8.25;;;5.55;;
24086;SDS011;22893;50.572;7.234;2022-08-19T13:18:45;7.00;;;4.87;;
24086;SDS011;22893;50.572;7.234;2022-08-19T13:21:17;7.95;;;6.00;;
24086;SDS011;22893;50.572;7.234;2022-08-19T13:23:46;8.95;;;6.03;;
24086;SDS011;22893;50.572;7.234;2022-08-19T13:26:14;9.80;;;6.70;;
24086;SDS011;22893;50.572;7.234;2022-08-19T13:28:42;11.15;;;6.22;;
24086;SDS011;22893;50.572;7.234;2022-08-19T13:31:30;10.03;;;6.85;;
24086;SDS011;22893;50.572;7.234;2022-08-19T13:34:18;13.03;;;7.20;;
24086;SDS011;22893;50.572;7.234;2022-08-19T13:36:48;9.53;;;6.50;;
24086;SDS011;22893;50.572;7.234;2022-08-19T13:39:16;10.82;;;6.47;;
24086;SDS011;22893;50.572;7.234;2022-08-19T13:41:44;10.10;;;6.67;;
24086;SDS011;22893;50.572;7.234;2022-08-19T13:44:14;10.03;;;6.05;;
24086;SDS011;22893;50.572;7.234;2022-08-19T13:46:45;10.20;;;6.67;;
24086;SDS011;22893;50.572;7.234;2022-08-19T13:49:16;10.25;;;7.12;;
24086;SDS011;22893;50.572;7.234;2022-08-19T13:51:44;9.45;;;7.08;;
24086;SDS011;22893;50.572;7.234;2022-08-19T13:54:12;11.63;;;7.45;;
24086;SDS011;22893;50.572;7.234;2022-08-19T13:56:43;11.55;;;7.45;;
24086;SDS011;22893;50.572;7.234;2022-08-19T13:59:11;10.25;;;7.12;;
24086;SDS011;22893;50.572;7.234;2022-08-19T14:01:39;15.28;;;6.33;;
24086;SDS011;22893;50.572;7.234;2022-08-19T14:04:07;13.38;;;8.38;;
24086;SDS011;22893;50.572;7.234;2022-08-19T14:06:35;12.63;;;6.97;;
24086;SDS011;22893;50.572;7.234;2022-08-19T14:09:03;13.25;;;7.33;;
24086;SDS011;22893;50.572;7.234;2022-08-19T14:11:31;10.58;;;6.33;;
24086;SDS011;22893;50.572;7.234;2022-08-19T14:13:59;13.80;;;7.05;;
24086;SDS011;22893;50.572;7.234;2022-08-19T14:16:26;9.98;;;6.67;;
24086;SDS011;22893;50.572;7.234;2022-08-19T14:18:55;11.22;;;6.12;;
24086;SDS011;22893;50.572;7.234;2022-08-19T14:21:23;11.28;;;6.40;;
24086;SDS011;22893;50.572;7.234;2022-08-19T14:23:52;10.53;;;5.95;;
24086;SDS011;22893;50.572;7.234;2022-08-19T14:26:20;10.63;;;6.05;;
24086;SDS011;22893;50.572;7.234;2022-08-19T14:28:49;8.73;;;5.70;;
24086;SDS011;22893;50.572;7.234;2022-08-19T14:31:18;8.30;;;5.28;;
24086;SDS011;22893;50.572;7.234;2022-08-19T14:33:47;8.85;;;5.50;;
24086;SDS011;22893;50.572;7.234;2022-08-19T14:36:16;8.43;;;5.00;;
24086;SDS011;22893;50.572;7.234;2022-08-19T14:38:45;9.70;;;4.50;;
24086;SDS011;22893;50.572;7.234;2022-08-19T14:41:15;10.55;;;4.67;;
24086;SDS011;22893;50.572;7.234;2022-08-19T14:43:45;6.08;;;4.05;;
24086;SDS011;22893;50.572;7.234;2022-08-19T14:46:16;8.18;;;4.33;;
24086;SDS011;22893;50.572;7.234;2022-08-19T14:48:48;8.88;;;4.45;;
24086;SDS011;22893;50.572;7.234;2022-08-19T14:51:17;8.00;;;4.22;;
24086;SDS011;22893;50.572;7.234;2022-08-19T14:53:46;9.43;;;4.17;;
24086;SDS011;22893;50.572;7.234;2022-08-19T14:56:18;6.42;;;3.87;;
24086;SDS011;22893;50.572;7.234;2022-08-19T14:58:47;10.63;;;4.28;;
24086;SDS011;22893;50.572;7.234;2022-08-19T15:01:19;8.85;;;4.28;;
24086;SDS011;22893;50.572;7.234;2022-08-19T15:03:50;8.18;;;4.50;;
24086;SDS011;22893;50.572;7.234;2022-08-19T15:06:19;7.33;;;4.60;;
24086;SDS011;22893;50.572;7.234;2022-08-19T15:08:47;9.20;;;4.65;;
24086;SDS011;22893;50.572;7.234;2022-08-19T15:11:18;6.78;;;4.25;;
24086;SDS011;22893;50.572;7.234;2022-08-19T15:13:47;10.05;;;5.10;;
24086;SDS011;22893;50.572;7.234;2022-08-19T15:16:16;12.78;;;5.33;;
24086;SDS011;22893;50.572;7.234;2022-08-19T15:18:45;11.30;;;5.40;;
24086;SDS011;22893;50.572;7.234;2022-08-19T15:21:15;8.65;;;5.12;;
24086;SDS011;22893;50.572;7.234;2022-08-19T15:23:44;9.15;;;4.85;;
24086;SDS011;22893;50.572;7.234;2022-08-19T15:26:13;12.85;;;5.37;;
24086;SDS011;22893;50.572;7.234;2022-08-19T15:28:42;8.35;;;4.65;;
24086;SDS011;22893;50.572;7.234;2022-08-19T15:31:10;11.95;;;5.42;;
24086;SDS011;22893;50.572;7.234;2022-08-19T15:33:38;8.68;;;4.90;;
24086;SDS011;22893;50.572;7.234;2022-08-19T15:36:08;7.83;;;5.15;;
24086;SDS011;22893;50.572;7.234;2022-08-19T15:38:37;10.15;;;5.60;;
24086;SDS011;22893;50.572;7.234;2022-08-19T15:41:13;11.15;;;5.58;;
24086;SDS011;22893;50.572;7.234;2022-08-19T15:43:50;11.55;;;5.35;;
24086;SDS011;22893;50.572;7.234;2022-08-19T15:46:26;8.78;;;5.03;;
24086;SDS011;22893;50.572;7.234;2022-08-19T15:48:54;7.20;;;4.30;;
24086;SDS011;22893;50.572;7.234;2022-08-19T15:51:22;8.35;;;4.58;;
24086;SDS011;22893;50.572;7.234;2022-08-19T15:53:51;11.48;;;5.45;;
24086;SDS011;22893;50.572;7.234;2022-08-19T15:56:20;10.93;;;4.42;;
24086;SDS011;22893;50.572;7.234;2022-08-19T15:58:47;8.55;;;4.67;;
24086;SDS011;22893;50.572;7.234;2022-08-19T16:01:33;8.38;;;4.90;;
24086;SDS011;22893;50.572;7.234;2022-08-19T16:04:19;11.03;;;4.35;;
24086;SDS011;22893;50.572;7.234;2022-08-19T16:07:04;7.65;;;4.67;;
24086;SDS011;22893;50.572;7.234;2022-08-19T16:09:33;8.78;;;4.65;;
24086;SDS011;22893;50.572;7.234;2022-08-19T16:12:03;9.55;;;4.65;;
24086;SDS011;22893;50.572;7.234;2022-08-19T16:14:31;7.15;;;4.33;;
24086;SDS011;22893;50.572;7.234;2022-08-19T16:17:02;10.00;;;4.60;;
24086;SDS011;22893;50.572;7.234;2022-08-19T16:19:30;8.50;;;4.45;;
24086;SDS011;22893;50.572;7.234;2022-08-19T16:21:58;10.63;;;4.85;;
24086;SDS011;22893;50.572;7.234;2022-08-19T16:24:26;8.55;;;5.22;;
24086;SDS011;22893;50.572;7.234;2022-08-19T16:26:54;9.25;;;4.20;;
24086;SDS011;22893;50.572;7.234;2022-08-19T16:29:22;9.38;;;5.28;;
24086;SDS011;22893;50.572;7.234;2022-08-19T16:31:50;7.15;;;4.05;;
24086;SDS011;22893;50.572;7.234;2022-08-19T16:34:20;8.25;;;4.87;;
24086;SDS011;22893;50.572;7.234;2022-08-19T16:36:49;7.92;;;4.22;;
24086;SDS011;22893;50.572;7.234;2022-08-19T16:39:17;8.03;;;4.17;;
24086;SDS011;22893;50.572;7.234;2022-08-19T16:41:45;7.53;;;4.17;;
24086;SDS011;22893;50.572;7.234;2022-08-19T16:44:13;8.58;;;4.47;;
24086;SDS011;22893;50.572;7.234;2022-08-19T16:46:42;8.53;;;4.47;;
24086;SDS011;22893;50.572;7.234;2022-08-19T16:49:12;8.23;;;3.95;;
24086;SDS011;22893;50.572;7.234;2022-08-19T16:51:40;11.12;;;4.85;;
24086;SDS011;22893;50.572;7.234;2022-08-19T16:54:09;7.95;;;4.25;;
24086;SDS011;22893;50.572;7.234;2022-08-19T16:56:37;7.37;;;4.10;;
24086;SDS011;22893;50.572;7.234;2022-08-19T16:59:05;7.62;;;4.40;;
24086;SDS011;22893;50.572;7.234;2022-08-19T17:01:32;6.05;;;3.33;;
24086;SDS011;22893;50.572;7.234;2022-08-19T17:04:00;7.40;;;4.33;;
24086;SDS011;22893;50.572;7.234;2022-08-19T17:06:29;6.45;;;3.80;;
24086;SDS011;22893;50.572;7.234;2022-08-19T17:08:58;5.87;;;3.65;;
24086;SDS011;22893;50.572;7.234;2022-08-19T17:11:28;7.30;;;3.08;;
24086;SDS011;22893;50.572;7.234;2022-08-19T17:14:03;7.87;;;3.87;;
24086;SDS011;22893;50.572;7.234;2022-08-19T17:16:29;6.85;;;3.70;;
24086;SDS011;22893;50.572;7.234;2022-08-19T17:19:00;7.60;;;3.58;;
24086;SDS011;22893;50.572;7.234;2022-08-19T17:21:30;5.15;;;3.50;;
24086;SDS011;22893;50.572;7.234;2022-08-19T17:24:00;5.78;;;3.87;;
24086;SDS011;22893;50.572;7.234;2022-08-19T17:26:29;5.37;;;2.92;;
24086;SDS011;22893;50.572;7.234;2022-08-19T17:28:57;5.28;;;3.20;;
24086;SDS011;22893;50.572;7.234;2022-08-19T17:31:26;5.67;;;3.50;;
24086;SDS011;22893;50.572;7.234;2022-08-19T17:33:55;5.37;;;3.00;;
24086;SDS011;22893;50.572;7.234;2022-08-19T17:36:24;5.42;;;3.05;;
24086;SDS011;22893;50.572;7.234;2022-08-19T17:38:54;5.58;;;3.15;;
24086;SDS011;22893;50.572;7.234;2022-08-19T17:41:24;5.05;;;2.90;;
24086;SDS011;22893;50.572;7.234;2022-08-19T17:43:52;8.95;;;3.42;;
24086;SDS011;22893;50.572;7.234;2022-08-19T17:46:20;5.17;;;3.08;;
24086;SDS011;22893;50.572;7.234;2022-08-19T17:48:48;5.40;;;3.40;;
24086;SDS011;22893;50.572;7.234;2022-08-19T17:51:20;4.75;;;2.95;;
24086;SDS011;22893;50.572;7.234;2022-08-19T17:53:52;5.42;;;2.83;;
24086;SDS011;22893;50.572;7.234;2022-08-19T17:56:20;5.95;;;3.33;;
24086;SDS011;22893;50.572;7.234;2022-08-19T17:58:49;5.25;;;2.72;;
24086;SDS011;22893;50.572;7.234;2022-08-19T18:01:17;4.25;;;2.85;;
24086;SDS011;22893;50.572;7.234;2022-08-19T18:03:45;5.42;;;2.95;;
24086;SDS011;22893;50.572;7.234;2022-08-19T18:06:13;5.17;;;2.85;;
24086;SDS011;22893;50.572;7.234;2022-08-19T18:08:42;4.55;;;2.72;;
24086;SDS011;22893;50.572;7.234;2022-08-19T18:11:12;7.22;;;2.40;;
24086;SDS011;22893;50.572;7.234;2022-08-19T18:13:40;4.45;;;2.75;;
24086;SDS011;22893;50.572;7.234;2022-08-19T18:16:08;5.72;;;2.47;;
24086;SDS011;22893;50.572;7.234;2022-08-19T18:18:37;5.17;;;2.92;;
24086;SDS011;22893;50.572;7.234;2022-08-19T18:21:06;5.42;;;2.75;;
24086;SDS011;22893;50.572;7.234;2022-08-19T18:23:34;4.15;;;2.37;;
24086;SDS011;22893;50.572;7.234;2022-08-19T18:26:02;5.05;;;2.60;;
24086;SDS011;22893;50.572;7.234;2022-08-19T18:28:31;4.00;;;2.60;;
24086;SDS011;22893;50.572;7.234;2022-08-19T18:30:59;4.35;;;2.87;;
24086;SDS011;22893;50.572;7.234;2022-08-19T18:33:28;5.65;;;2.58;;
24086;SDS011;22893;50.572;7.234;2022-08-19T18:35:55;5.62;;;3.12;;
24086;SDS011;22893;50.572;7.234;2022-08-19T18:38:23;6.60;;;2.87;;
24086;SDS011;22893;50.572;7.234;2022-08-19T18:41:08;4.35;;;2.62;;
24086;SDS011;22893;50.572;7.234;2022-08-19T18:43:54;4.58;;;2.87;;
24086;SDS011;22893;50.572;7.234;2022-08-19T18:46:39;4.83;;;2.72;;
24086;SDS011;22893;50.572;7.234;2022-08-19T18:49:25;4.78;;;2.55;;
24086;SDS011;22893;50.572;7.234;2022-08-19T18:51:55;3.62;;;2.42;;
24086;SDS011;22893;50.572;7.234;2022-08-19T18:54:24;4.53;;;2.50;;
24086;SDS011;22893;50.572;7.234;2022-08-19T18:56:52;5.67;;;2.87;;
24086;SDS011;22893;50.572;7.234;2022-08-19T18:59:24;5.22;;;2.60;;
24086;SDS011;22893;50.572;7.234;2022-08-19T19:01:54;4.50;;;2.30;;
24086;SDS011;22893;50.572;7.234;2022-08-19T19:04:28;5.40;;;2.85;;
24086;SDS011;22893;50.572;7.234;2022-08-19T19:07:00;4.17;;;2.20;;
24086;SDS011;22893;50.572;7.234;2022-08-19T19:09:29;4.20;;;2.30;;
24086;SDS011;22893;50.572;7.234;2022-08-19T19:11:58;3.75;;;2.77;;
24086;SDS011;22893;50.572;7.234;2022-08-19T19:14:29;5.25;;;2.85;;
24086;SDS011;22893;50.572;7.234;2022-08-19T19:16:59;4.22;;;2.33;;
24086;SDS011;22893;50.572;7.234;2022-08-19T19:19:29;4.15;;;2.00;;
24086;SDS011;22893;50.572;7.234;2022-08-19T19:21:58;3.98;;;2.30;;
24086;SDS011;22893;50.572;7.234;2022-08-19T19:24:28;3.45;;;2.15;;
24086;SDS011;22893;50.572;7.234;2022-08-19T19:29:45;3.65;;;2.08;;
24086;SDS011;22893;50.572;7.234;2022-08-19T19:32:19;8.55;;;2.27;;
24086;SDS011;22893;50.572;7.234;2022-08-19T19:34:48;5.65;;;2.10;;
24086;SDS011;22893;50.572;7.234;2022-08-19T19:37:16;4.17;;;2.27;;
24086;SDS011;22893;50.572;7.234;2022-08-19T19:39:44;3.15;;;2.22;;
24086;SDS011;22893;50.572;7.234;2022-08-19T19:42:14;4.75;;;1.90;;
24086;SDS011;22893;50.572;7.234;2022-08-19T19:44:43;3.10;;;2.12;;
24086;SDS011;22893;50.572;7.234;2022-08-19T19:47:13;4.60;;;2.30;;
24086;SDS011;22893;50.572;7.234;2022-08-19T19:49:42;3.37;;;1.72;;
24086;SDS011;22893;50.572;7.234;2022-08-19T19:52:11;3.92;;;2.15;;
24086;SDS011;22893;50.572;7.234;2022-08-19T19:54:38;4.65;;;1.95;;
24086;SDS011;22893;50.572;7.234;2022-08-19T19:57:06;4.05;;;1.70;;
24086;SDS011;22893;50.572;7.234;2022-08-19T19:59:34;7.80;;;2.15;;
24086;SDS011;22893;50.572;7.234;2022-08-19T20:02:02;2.62;;;1.82;;
24086;SDS011;22893;50.572;7.234;2022-08-19T20:04:30;3.37;;;1.95;;
24086;SDS011;22893;50.572;7.234;2022-08-19T20:06:57;4.67;;;2.15;;
24086;SDS011;22893;50.572;7.234;2022-08-19T20:09:25;3.45;;;2.00;;
24086;SDS011;22893;50.572;7.234;2022-08-19T20:11:53;4.30;;;2.15;;
24086;SDS011;22893;50.572;7.234;2022-08-19T20:14:24;2.62;;;1.70;;
24086;SDS011;22893;50.572;7.234;2022-08-19T20:16:55;4.95;;;1.87;;
24086;SDS011;22893;50.572;7.234;2022-08-19T20:19:25;3.67;;;1.65;;